createdAt,value
2019-04-16T00:02:31.728Z,4.37
2019-04-16T00:05:15.185Z,3.85
2019-04-16T00:08:27.466Z,3.65
2019-04-16T00:10:59.310Z,3.58
2019-04-16T00:14:03.401Z,4.35
2019-04-16T00:16:41.379Z,4.27
2019-04-16T00:19:17.191Z,4.03
2019-04-16T00:22:17.433Z,3.45
2019-04-16T00:24:56.427Z,4.07
2019-04-16T00:27:32.353Z,4.00
2019-04-16T00:30:08.874Z,3.22
2019-04-16T00:32:45.307Z,3.85
2019-04-16T00:35:21.833Z,4.00
2019-04-16T00:37:57.934Z,3.72
2019-04-16T00:40:34.519Z,4.03
2019-04-16T00:43:10.869Z,3.95
2019-04-16T00:45:47.159Z,3.55
2019-04-16T00:48:23.396Z,3.47
2019-04-16T00:51:00.393Z,4.13
2019-04-16T00:53:39.072Z,3.83
2019-04-16T00:56:16.176Z,4.07
2019-04-16T00:58:54.148Z,3.97
2019-04-16T01:01:30.437Z,3.83
2019-04-16T01:04:06.725Z,3.87
2019-04-16T01:06:43.281Z,4.33
2019-04-16T01:09:19.759Z,4.12
2019-04-16T01:11:56.019Z,3.67
2019-04-16T01:14:32.202Z,3.73
2019-04-16T01:17:08.727Z,4.10
2019-04-16T01:19:44.450Z,4.00
2019-04-16T01:22:21.299Z,3.67
2019-04-16T01:24:58.160Z,4.03
2019-04-16T01:27:37.925Z,3.70
2019-04-16T01:30:16.013Z,3.75
2019-04-16T01:33:05.987Z,4.10
2019-04-16T01:36:01.891Z,3.65
2019-04-16T01:38:46.028Z,4.07
2019-04-16T01:41:22.621Z,3.40
2019-04-16T01:43:58.795Z,3.85
2019-04-16T01:46:34.734Z,3.77
2019-04-16T01:49:11.614Z,3.43
2019-04-16T01:51:48.211Z,3.63
2019-04-16T01:54:25.751Z,3.70
2019-04-16T01:57:01.722Z,3.63
2019-04-16T01:59:38.620Z,4.23
2019-04-16T02:02:15.978Z,3.43
2019-04-16T02:04:52.798Z,4.10
2019-04-16T02:07:29.157Z,3.85
2019-04-16T02:10:07.635Z,3.60
2019-04-16T02:12:44.591Z,3.80
2019-04-16T02:15:21.819Z,3.60
2019-04-16T02:17:59.607Z,3.47
2019-04-16T02:20:38.431Z,3.75
2019-04-16T02:23:16.687Z,3.53
2019-04-16T02:25:52.027Z,3.97
2019-04-16T02:28:29.032Z,3.10
2019-04-16T02:31:13.940Z,3.80
2019-04-16T02:33:44.404Z,3.60
2019-04-16T02:36:21.026Z,3.17
2019-04-16T02:38:57.803Z,3.87
2019-04-16T02:41:33.531Z,3.98
2019-04-16T02:44:14.017Z,3.70
2019-04-16T02:46:46.964Z,3.50
2019-04-16T02:49:24.472Z,3.77
2019-04-16T02:52:16.469Z,4.00
2019-04-16T02:54:58.253Z,4.30
2019-04-16T02:58:01.399Z,3.50
2019-04-16T03:00:55.600Z,3.70
2019-04-16T03:03:36.893Z,3.80
2019-04-16T03:06:13.602Z,3.67
2019-04-16T03:08:50.670Z,3.87
2019-04-16T03:11:26.729Z,3.57
2019-04-16T03:14:02.969Z,3.92
2019-04-16T03:17:01.847Z,3.87
2019-04-16T03:19:40.333Z,3.73
2019-04-16T03:22:16.450Z,3.75
2019-04-16T03:24:52.773Z,4.07
2019-04-16T03:27:29.761Z,3.50
2019-04-16T03:30:07.307Z,3.45
2019-04-16T03:32:49.673Z,3.77
2019-04-16T03:35:26.944Z,3.50
2019-04-16T03:38:05.386Z,3.57
2019-04-16T03:40:40.909Z,3.50
2019-04-16T03:43:16.874Z,3.50
2019-04-16T03:45:52.989Z,3.52
2019-04-16T03:48:29.650Z,4.00
2019-04-16T03:51:07.136Z,3.63
2019-04-16T03:53:46.482Z,3.87
2019-04-16T03:56:22.376Z,3.27
2019-04-16T03:58:58.476Z,3.80
2019-04-16T04:01:35.182Z,3.65
2019-04-16T04:04:12.149Z,4.03
2019-04-16T04:06:48.568Z,3.37
2019-04-16T04:09:25.424Z,3.70
2019-04-16T04:12:01.985Z,3.37
2019-04-16T04:14:38.217Z,3.73
2019-04-16T04:17:14.955Z,4.07
2019-04-16T04:19:51.473Z,3.70
2019-04-16T04:22:27.839Z,3.67
2019-04-16T04:25:05.270Z,3.93
2019-04-16T04:27:43.588Z,3.50
2019-04-16T04:30:20.788Z,3.45
2019-04-16T04:32:57.730Z,3.83
2019-04-16T04:35:34.793Z,3.40
2019-04-16T04:38:11.105Z,3.63
2019-04-16T04:40:50.558Z,3.20
2019-04-16T04:43:24.802Z,3.60
2019-04-16T04:46:00.588Z,3.92
2019-04-16T04:48:36.595Z,3.50
2019-04-16T04:51:13.076Z,3.70
2019-04-16T04:53:50.354Z,4.00
2019-04-16T04:56:27.967Z,3.90
2019-04-16T04:59:05.949Z,3.50
2019-04-16T05:01:42.708Z,3.67
2019-04-16T05:04:34.602Z,3.77
2019-04-16T05:07:11.217Z,4.10
2019-04-16T05:09:47.870Z,4.33
2019-04-16T05:12:24.682Z,3.70
2019-04-16T05:15:03.826Z,3.77
2019-04-16T05:17:40.455Z,3.37
2019-04-16T05:20:16.844Z,3.57
2019-04-16T05:22:54.394Z,3.70
2019-04-16T05:25:34.087Z,3.80
2019-04-16T05:28:12.188Z,3.93
2019-04-16T05:30:51.785Z,3.67
2019-04-16T05:33:27.203Z,4.33
2019-04-16T05:36:03.408Z,3.93
2019-04-16T05:38:39.224Z,4.25
2019-04-16T05:41:20.498Z,3.83
2019-04-16T05:43:54.753Z,3.40
2019-04-16T05:46:31.324Z,3.40
2019-04-16T05:49:07.818Z,3.20
2019-04-16T05:51:44.485Z,4.07
2019-04-16T05:54:38.437Z,3.87
2019-04-16T05:57:25.682Z,4.63
2019-04-16T05:59:59.568Z,5.65
2019-04-16T06:02:40.735Z,7.63
2019-04-16T06:05:17.623Z,6.03
2019-04-16T06:07:55.621Z,5.90
2019-04-16T06:10:32.067Z,4.70
2019-04-16T06:13:26.001Z,5.47
2019-04-16T06:16:27.060Z,5.60
2019-04-16T06:19:31.441Z,4.40
2019-04-16T06:22:30.226Z,4.67
2019-04-16T06:25:28.469Z,4.30
2019-04-16T06:28:16.889Z,5.08
2019-04-16T06:31:10.517Z,4.40
2019-04-16T06:33:56.781Z,5.13
2019-04-16T06:36:57.381Z,4.83
2019-04-16T06:39:37.475Z,4.90
2019-04-16T06:42:51.521Z,4.67
2019-04-16T06:45:43.168Z,4.37
2019-04-16T06:48:28.379Z,4.60
2019-04-16T06:51:36.121Z,4.58
2019-04-16T06:54:32.765Z,4.75
2019-04-16T06:57:27.787Z,4.20
2019-04-16T07:00:19.689Z,3.63
2019-04-16T07:03:13.637Z,4.40
2019-04-16T07:06:21.871Z,4.50
2019-04-16T07:09:08.319Z,3.95
2019-04-16T07:11:54.375Z,4.72
2019-04-16T07:14:23.618Z,4.60
2019-04-16T07:17:00.931Z,4.13
2019-04-16T07:19:39.456Z,4.47
2019-04-16T07:22:20.816Z,4.93
2019-04-16T07:25:03.816Z,4.17
2019-04-16T07:27:52.526Z,3.95
2019-04-16T07:30:39.972Z,4.33
2019-04-16T07:33:40.940Z,4.43
2019-04-16T07:36:28.105Z,4.22
2019-04-16T07:39:37.238Z,4.83
2019-04-16T07:42:10.581Z,4.62
2019-04-16T07:45:01.235Z,4.20
2019-04-16T07:47:57.395Z,4.40
2019-04-16T07:50:53.792Z,5.35
2019-04-16T07:53:40.430Z,5.08
2019-04-16T07:56:22.386Z,4.53
2019-04-16T07:59:01.263Z,5.25
2019-04-16T08:01:38.162Z,4.62
2019-04-16T08:04:19.078Z,5.25
2019-04-16T08:06:52.715Z,4.72
2019-04-16T08:09:34.088Z,5.43
2019-04-16T08:12:28.708Z,5.15
2019-04-16T08:14:49.176Z,5.33
2019-04-16T08:17:25.368Z,5.92
2019-04-16T08:20:01.293Z,5.55
2019-04-16T08:22:39.949Z,5.05
2019-04-16T08:25:19.880Z,5.53
2019-04-16T08:27:56.857Z,5.12
2019-04-16T08:30:37.216Z,5.30
2019-04-16T08:33:11.881Z,5.20
2019-04-16T08:35:48.543Z,5.28
2019-04-16T08:38:26.162Z,5.30
2019-04-16T08:41:02.975Z,5.15
2019-04-16T08:43:39.245Z,5.23
2019-04-16T08:46:15.762Z,5.50
2019-04-16T08:48:54.281Z,5.17
2019-04-16T08:51:31.231Z,5.20
2019-04-16T08:54:07.581Z,5.03
2019-04-16T08:56:44.063Z,4.72
2019-04-16T08:59:20.018Z,4.87
2019-04-16T09:01:56.520Z,4.90
2019-04-16T09:04:34.698Z,4.95
2019-04-16T09:07:30.688Z,4.62
2019-04-16T09:10:18.062Z,4.10
2019-04-16T09:13:02.370Z,3.98
2019-04-16T09:15:31.088Z,4.47
2019-04-16T09:18:24.994Z,4.08
2019-04-16T09:20:59.533Z,3.90
2019-04-16T09:23:36.457Z,4.28
2019-04-16T09:26:23.901Z,4.65
2019-04-16T09:29:25.755Z,4.00
2019-04-16T09:32:10.047Z,4.35
2019-04-16T09:35:09.766Z,3.90
2019-04-16T09:37:46.965Z,3.75
2019-04-16T09:40:36.941Z,4.15
2019-04-16T09:43:18.059Z,4.15
2019-04-16T09:45:54.694Z,3.75
2019-04-16T09:48:34.487Z,3.92
2019-04-16T09:51:08.695Z,3.77
2019-04-16T09:53:45.174Z,4.05
2019-04-16T09:56:32.041Z,3.75
2019-04-16T09:59:16.325Z,4.10
2019-04-16T10:02:03.990Z,3.70
2019-04-16T10:04:40.229Z,3.85
2019-04-16T10:07:16.698Z,3.75
2019-04-16T10:09:54.520Z,4.05
2019-04-16T10:12:30.953Z,3.95
2019-04-16T10:15:08.605Z,4.20
2019-04-16T10:17:45.356Z,3.85
2019-04-16T10:20:21.899Z,3.72
2019-04-16T10:23:02.050Z,4.05
2019-04-16T10:25:38.500Z,3.50
2019-04-16T10:28:25.372Z,3.47
2019-04-16T10:31:01.164Z,4.35
2019-04-16T10:33:37.695Z,3.22
2019-04-16T10:36:14.111Z,4.08
2019-04-16T10:38:55.276Z,3.65
2019-04-16T10:41:50.541Z,3.58
2019-04-16T10:44:42.725Z,4.08
2019-04-16T10:47:50.251Z,3.33
2019-04-16T10:50:48.103Z,3.42
2019-04-16T10:53:33.042Z,4.00
2019-04-16T10:56:32.085Z,3.12
2019-04-16T10:59:15.204Z,3.50
2019-04-16T11:02:16.957Z,3.75
2019-04-16T11:05:03.176Z,4.10
2019-04-16T11:07:40.575Z,3.40
2019-04-16T11:10:18.084Z,4.00
2019-04-16T11:12:54.717Z,3.55
2019-04-16T11:15:31.134Z,3.20
2019-04-16T11:18:08.162Z,4.03
2019-04-16T11:20:44.533Z,3.42
2019-04-16T11:23:21.577Z,3.42
2019-04-16T11:25:57.327Z,3.62
2019-04-16T11:28:34.307Z,3.92
2019-04-16T11:31:13.966Z,3.60
2019-04-16T11:33:50.304Z,3.37
2019-04-16T11:36:30.677Z,3.67
2019-04-16T11:39:07.170Z,3.60
2019-04-16T11:41:43.445Z,3.40
2019-04-16T11:44:19.730Z,3.42
2019-04-16T11:46:56.663Z,3.83
2019-04-16T11:49:33.350Z,3.55
2019-04-16T11:52:09.821Z,3.25
2019-04-16T11:54:47.053Z,3.50
2019-04-16T11:57:24.255Z,3.50
2019-04-16T12:00:07.734Z,3.60
2019-04-16T12:03:10.149Z,3.40
2019-04-16T12:06:28.454Z,3.20
2019-04-16T12:09:21.339Z,3.47
2019-04-16T12:12:05.747Z,3.20
2019-04-16T12:15:00.539Z,3.27
2019-04-16T12:17:54.628Z,3.87
2019-04-16T12:21:02.056Z,3.42
2019-04-16T12:23:47.109Z,3.33
2019-04-16T12:26:41.899Z,3.05
2019-04-16T12:29:32.256Z,3.37
2019-04-16T12:32:27.434Z,3.22
2019-04-16T12:35:23.396Z,3.62
2019-04-16T12:38:18.637Z,3.20
2019-04-16T12:41:20.812Z,3.25
2019-04-16T12:44:43.937Z,3.08
2019-04-16T12:47:26.610Z,3.22
2019-04-16T12:50:17.199Z,3.55
2019-04-16T12:52:59.656Z,2.87
2019-04-16T12:55:48.628Z,3.08
2019-04-16T12:58:38.200Z,3.60
2019-04-16T13:01:23.704Z,3.20
2019-04-16T13:04:22.141Z,3.35
2019-04-16T13:07:20.724Z,3.10
2019-04-16T13:10:07.865Z,2.92
2019-04-16T13:13:23.119Z,3.30
2019-04-16T13:16:15.525Z,3.20
2019-04-16T13:19:18.329Z,3.17
2019-04-16T13:21:59.941Z,3.40
2019-04-16T13:24:41.447Z,3.22
2019-04-16T13:27:28.924Z,3.22
2019-04-16T13:30:08.097Z,2.98
2019-04-16T13:32:44.696Z,3.35
2019-04-16T13:35:21.300Z,2.85
2019-04-16T13:37:57.750Z,3.15
2019-04-16T13:40:34.819Z,3.35
2019-04-16T13:43:13.042Z,3.30
2019-04-16T13:45:49.224Z,3.62
2019-04-16T13:48:44.282Z,3.40
2019-04-16T13:51:22.665Z,3.58
2019-04-16T13:54:10.824Z,3.10
2019-04-16T13:57:05.764Z,3.25
2019-04-16T14:00:04.700Z,3.30
2019-04-16T14:03:06.267Z,2.70
2019-04-16T14:05:42.916Z,3.55
2019-04-16T14:08:19.451Z,3.05
2019-04-16T14:10:55.838Z,3.30
2019-04-16T14:13:31.838Z,3.20
2019-04-16T14:16:12.743Z,3.22
2019-04-16T14:18:48.750Z,3.45
2019-04-16T14:21:24.878Z,3.40
2019-04-16T14:24:01.193Z,3.17
2019-04-16T14:26:38.514Z,3.20
2019-04-16T14:29:14.905Z,3.65
2019-04-16T14:31:51.194Z,3.17
2019-04-16T14:34:56.822Z,3.08
2019-04-16T14:37:33.914Z,3.42
2019-04-16T14:40:20.880Z,3.40
2019-04-16T14:42:58.255Z,2.92
2019-04-16T14:45:57.377Z,3.47
2019-04-16T14:48:21.755Z,3.52
2019-04-16T14:50:59.513Z,3.00
2019-04-16T14:54:07.588Z,3.33
2019-04-16T14:56:51.175Z,2.85
2019-04-16T14:59:35.391Z,3.20
2019-04-16T15:02:30.485Z,2.70
2019-04-16T15:05:26.354Z,3.30
2019-04-16T15:08:22.330Z,3.30
2019-04-16T15:11:28.740Z,3.20
2019-04-16T15:14:17.158Z,3.10
2019-04-16T15:17:04.026Z,3.25
2019-04-16T15:19:47.053Z,3.20
2019-04-16T15:22:30.513Z,3.08
2019-04-16T15:25:32.823Z,3.15
2019-04-16T15:28:34.549Z,3.85
2019-04-16T15:31:22.370Z,3.37
2019-04-16T15:34:30.180Z,3.30
2019-04-16T15:37:31.779Z,3.10
2019-04-16T15:40:17.873Z,3.15
2019-04-16T15:43:05.736Z,3.15
2019-04-16T15:46:25.241Z,3.20
2019-04-16T15:49:07.581Z,2.85
2019-04-16T15:52:00.706Z,3.10
2019-04-16T15:54:45.508Z,3.52
2019-04-16T15:57:33.779Z,3.12
2019-04-16T16:00:46.372Z,2.92
2019-04-16T16:03:40.482Z,3.08
2019-04-16T16:06:20.678Z,3.70
2019-04-16T16:09:15.811Z,3.30
2019-04-16T16:12:09.871Z,3.17
2019-04-16T16:14:44.720Z,3.45
2019-04-16T16:17:22.548Z,3.02
2019-04-16T16:19:58.801Z,3.00
2019-04-16T16:22:36.441Z,3.35
2019-04-16T16:25:13.249Z,2.67
2019-04-16T16:27:50.041Z,3.17
2019-04-16T16:30:27.425Z,3.83
2019-04-16T16:33:04.497Z,3.30
2019-04-16T16:35:56.567Z,3.27
2019-04-16T16:38:20.994Z,3.22
2019-04-16T16:40:57.326Z,2.95
2019-04-16T16:43:34.024Z,3.02
2019-04-16T16:46:32.038Z,3.42
2019-04-16T16:49:08.857Z,3.37
2019-04-16T16:52:06.860Z,2.95
2019-04-16T16:54:46.675Z,3.17
2019-04-16T16:57:28.566Z,3.25
2019-04-16T17:00:25.034Z,3.58
2019-04-16T17:03:25.821Z,3.15
2019-04-16T17:06:03.309Z,3.20
2019-04-16T17:08:40.241Z,2.65
2019-04-16T17:11:17.869Z,3.12
2019-04-16T17:13:53.896Z,3.35
2019-04-16T17:16:31.131Z,3.02
2019-04-16T17:19:09.230Z,3.02
2019-04-16T17:21:47.148Z,2.80
2019-04-16T17:24:23.804Z,3.12
2019-04-16T17:27:00.765Z,2.92
2019-04-16T17:29:37.297Z,3.37
2019-04-16T17:32:14.541Z,3.22
2019-04-16T17:34:51.270Z,2.85
2019-04-16T17:37:28.673Z,3.27
2019-04-16T17:40:17.872Z,2.98
2019-04-16T17:42:58.393Z,3.47
2019-04-16T17:45:56.024Z,3.05
2019-04-16T17:48:52.546Z,3.20
2019-04-16T17:51:50.549Z,3.30
2019-04-16T17:54:33.253Z,3.20
2019-04-16T17:57:30.831Z,3.25
2019-04-16T18:00:41.857Z,3.02
2019-04-16T18:03:36.972Z,3.00
2019-04-16T18:06:28.093Z,2.70
2019-04-16T18:09:16.014Z,3.15
2019-04-16T18:12:11.236Z,3.20
2019-04-16T18:15:00.803Z,3.40
2019-04-16T18:18:01.360Z,3.72
2019-04-16T18:20:56.706Z,3.27
2019-04-16T18:23:37.428Z,3.50
2019-04-16T18:26:29.677Z,3.47
2019-04-16T18:29:24.936Z,3.62
2019-04-16T18:32:13.241Z,3.40
2019-04-16T18:35:08.113Z,3.20
2019-04-16T18:38:00.389Z,4.08
2019-04-16T18:41:03.602Z,3.20
2019-04-16T18:44:15.884Z,3.45
2019-04-16T18:47:11.121Z,3.50
2019-04-16T18:49:49.109Z,3.70
2019-04-16T18:52:26.117Z,3.85
2019-04-16T18:55:02.254Z,3.85
2019-04-16T18:57:39.296Z,3.65
2019-04-16T19:00:34.359Z,3.30
2019-04-16T19:03:14.598Z,4.00
2019-04-16T19:05:49.497Z,3.92
2019-04-16T19:08:40.794Z,3.35
2019-04-16T19:11:05.805Z,3.45
2019-04-16T19:13:41.838Z,3.25
2019-04-16T19:16:18.271Z,3.45
2019-04-16T19:18:54.458Z,3.55
2019-04-16T19:21:31.146Z,3.65
2019-04-16T19:24:07.345Z,3.50
2019-04-16T19:26:44.186Z,3.50
2019-04-16T19:29:20.926Z,3.25
2019-04-16T19:31:57.618Z,3.08
2019-04-16T19:34:35.231Z,2.85
2019-04-16T19:37:11.267Z,3.08
2019-04-16T19:39:47.902Z,3.22
2019-04-16T19:42:25.728Z,3.80
2019-04-16T19:45:03.095Z,3.70
2019-04-16T19:47:39.673Z,3.37
2019-04-16T19:50:16.363Z,3.30
2019-04-16T19:52:53.511Z,3.37
2019-04-16T19:55:32.060Z,3.60
2019-04-16T19:58:08.261Z,3.50
2019-04-16T20:00:44.058Z,3.65
2019-04-16T20:03:20.226Z,3.40
2019-04-16T20:05:59.454Z,3.90
2019-04-16T20:08:39.726Z,3.72
2019-04-16T20:11:14.124Z,2.98
2019-04-16T20:13:51.205Z,3.40
2019-04-16T20:16:30.126Z,3.35
2019-04-16T20:19:07.005Z,3.45
2019-04-16T20:21:44.804Z,3.60
2019-04-16T20:24:21.353Z,3.65
2019-04-16T20:26:58.484Z,3.02
2019-04-16T20:29:35.146Z,3.25
2019-04-16T20:32:11.659Z,3.55
2019-04-16T20:34:47.609Z,2.95
2019-04-16T20:37:23.455Z,2.85
2019-04-16T20:40:00.195Z,3.27
2019-04-16T20:42:36.361Z,3.35
2019-04-16T20:45:13.156Z,3.15
2019-04-16T20:47:49.200Z,3.37
2019-04-16T20:50:25.747Z,2.80
2019-04-16T20:53:06.202Z,2.62
2019-04-16T20:55:41.198Z,3.52
2019-04-16T20:58:30.663Z,2.77
2019-04-16T21:01:04.809Z,3.27
2019-04-16T21:03:42.184Z,2.65
2019-04-16T21:06:19.632Z,3.05
2019-04-16T21:08:58.212Z,2.67
2019-04-16T21:11:34.687Z,2.75
2019-04-16T21:14:13.094Z,2.70
2019-04-16T21:16:48.929Z,2.47
2019-04-16T21:19:46.447Z,3.17
2019-04-16T21:22:24.937Z,2.33
2019-04-16T21:25:01.169Z,3.10
2019-04-16T21:27:49.982Z,2.72
2019-04-16T21:30:26.542Z,2.83
2019-04-16T21:33:11.084Z,2.60
2019-04-16T21:35:50.303Z,2.58
2019-04-16T21:38:45.191Z,2.47
2019-04-16T21:41:22.283Z,2.72
2019-04-16T21:43:58.201Z,2.72
2019-04-16T21:46:34.392Z,2.83
2019-04-16T21:49:10.346Z,2.70
2019-04-16T21:52:04.762Z,2.55
2019-04-16T21:54:40.998Z,2.33
2019-04-16T21:57:17.573Z,2.58
2019-04-16T21:59:56.930Z,2.67
2019-04-16T22:02:37.958Z,2.87
2019-04-16T22:05:17.700Z,2.08
2019-04-16T22:07:53.699Z,2.33
2019-04-16T22:10:31.545Z,2.30
2019-04-16T22:13:08.361Z,2.50
2019-04-16T22:15:44.924Z,2.92
2019-04-16T22:18:21.142Z,2.35
2019-04-16T22:20:56.993Z,2.55
2019-04-16T22:23:33.721Z,2.12
2019-04-16T22:26:11.070Z,1.92
2019-04-16T22:28:47.228Z,2.40
2019-04-16T22:31:24.825Z,2.50
2019-04-16T22:34:01.341Z,2.20
2019-04-16T22:36:38.185Z,2.60
2019-04-16T22:39:25.713Z,2.08
2019-04-16T22:42:20.786Z,2.25
2019-04-16T22:45:22.125Z,2.20
2019-04-16T22:47:59.529Z,2.22
2019-04-16T22:50:38.114Z,2.72
2019-04-16T22:53:17.128Z,2.10
2019-04-16T22:55:56.498Z,2.15
2019-04-16T22:58:49.800Z,1.80
2019-04-16T23:01:27.165Z,2.15
2019-04-16T23:04:03.802Z,2.05
2019-04-16T23:06:40.649Z,2.33
2019-04-16T23:09:17.984Z,1.80
2019-04-16T23:11:55.873Z,2.00
2019-04-16T23:14:34.852Z,2.27
2019-04-16T23:17:14.174Z,2.15
2019-04-16T23:19:48.606Z,1.70
2019-04-16T23:22:24.999Z,2.25
2019-04-16T23:25:01.668Z,1.95
2019-04-16T23:27:38.215Z,1.87
2019-04-16T23:30:15.743Z,2.25
2019-04-16T23:32:53.445Z,2.12
2019-04-16T23:35:30.342Z,1.90
2019-04-16T23:38:06.392Z,1.90
2019-04-16T23:40:43.927Z,1.70
2019-04-16T23:43:50.544Z,2.35
2019-04-16T23:46:46.748Z,2.10
2019-04-16T23:49:45.352Z,1.77
2019-04-16T23:52:24.528Z,1.95
2019-04-16T23:55:20.112Z,1.80
2019-04-16T23:58:09.029Z,1.92
